Time;durP1;ratioP1;P1;durP2;ratioP2;P2;SDS_P1;SDS_P2;PMS_P1;PMS_P2;Temp;Humidity;BMP_temperature;BMP_pressure;BME280_temperature;BME280_humidity;BME280_pressure;Samples;Min_cycle;Max_cycle;Signal;HPM_P1;HPM_P2
2022/03/15 00:00:40;;;;;;;;;;;19.10;99.90;;;;;;5037570;28;19944;-65
2022/03/15 00:03:07;;;;;;;;;;;19.20;99.90;;;;;;5029008;28;19929;-63
2022/03/15 00:05:35;;;;;;;;;;;19.10;99.90;;;;;;5038064;28;19929;-64
2022/03/15 00:08:02;;;;;;;;;;;19.10;99.90;;;;;;5027193;28;19929;-64
2022/03/15 00:10:29;;;;;;;;;;;19.10;99.90;;;;;;5045386;28;19928;-65
2022/03/15 00:12:57;;;;;;;;;;;19.10;99.90;;;;;;5034534;28;19941;-63
2022/03/15 00:15:27;;;;;;;;;;;19.10;99.90;;;;;;5038538;28;19925;-62
2022/03/15 00:17:54;;;;;;;;;;;19.10;99.90;;;;;;5038537;28;19932;-64
2022/03/15 00:20:23;;;;;;;;;;;19.00;99.90;;;;;;5040774;28;19932;-63
2022/03/15 00:22:51;;;;;;;;;;;19.10;99.90;;;;;;5038026;28;19933;-66
2022/03/15 00:25:18;;;;;;;;;;;19.00;99.90;;;;;;5044729;28;19925;-65
2022/03/15 00:27:46;;;;;;;;;;;19.00;99.90;;;;;;5049438;28;19937;-65
2022/03/15 00:30:14;;;;;;;;;;;19.00;99.90;;;;;;5032995;28;20251;-64
2022/03/15 00:32:42;;;;;;;;;;;19.00;99.90;;;;;;5044237;28;19929;-63
2022/03/15 00:35:16;;;;;;;;;;;19.00;99.90;;;;;;5035710;28;20636;-65
2022/03/15 00:37:47;;;;;;;;;;;19.00;99.90;;;;;;5036502;28;20518;-64
2022/03/15 00:40:14;;;;;;;;;;;19.00;99.90;;;;;;5033535;28;19940;-62
2022/03/15 00:42:49;;;;;;;;;;;19.00;99.90;;;;;;5042206;28;19929;-64
2022/03/15 00:45:25;;;;;;;;;;;19.00;99.90;;;;;;5032743;28;19933;-64
2022/03/15 00:47:52;;;;;;;;;;;19.00;99.90;;;;;;5033592;28;19936;-65
2022/03/15 00:50:20;;;;;;;;;;;19.00;99.90;;;;;;5029238;28;19932;-64
2022/03/15 00:52:47;;;;;;;;;;;19.10;99.90;;;;;;5041948;28;19936;-64
2022/03/15 00:55:14;;;;;;;;;;;19.10;99.90;;;;;;5029577;28;19925;-64
2022/03/15 00:57:43;;;;;;;;;;;19.10;99.90;;;;;;5041838;28;19930;-64
2022/03/15 01:00:12;;;;;;;;;;;19.00;99.90;;;;;;5027504;28;20556;-66
2022/03/15 01:02:40;;;;;;;;;;;19.00;99.90;;;;;;5046713;28;19929;-65
2022/03/15 01:05:08;;;;;;;;;;;19.00;99.90;;;;;;5031836;28;19948;-64
2022/03/15 01:07:39;;;;;;;;;;;19.00;99.90;;;;;;5039010;28;19925;-65
2022/03/15 01:10:07;;;;;;;;;;;19.00;99.90;;;;;;5038516;28;19932;-65
2022/03/15 01:12:34;;;;;;;;;;;19.00;99.90;;;;;;5032110;28;19929;-62
2022/03/15 01:15:04;;;;;;;;;;;19.00;99.90;;;;;;5031575;28;19933;-66
2022/03/15 01:17:31;;;;;;;;;;;19.00;99.90;;;;;;5032843;28;20831;-65
2022/03/15 01:19:58;;;;;;;;;;;18.90;99.90;;;;;;5026803;28;20397;-65
2022/03/15 01:22:26;;;;;;;;;;;19.00;99.90;;;;;;5046006;28;19935;-65
2022/03/15 01:24:53;;;;;;;;;;;19.00;99.90;;;;;;5030765;28;19996;-65
2022/03/15 01:27:21;;;;;;;;;;;19.00;99.90;;;;;;5034646;28;19936;-65
2022/03/15 01:29:48;;;;;;;;;;;19.00;99.90;;;;;;5026878;28;19925;-68
2022/03/15 01:32:16;;;;;;;;;;;19.00;99.90;;;;;;5029971;28;19929;-64
2022/03/15 01:34:47;;;;;;;;;;;18.90;99.90;;;;;;5026951;28;19929;-66
2022/03/15 01:37:14;;;;;;;;;;;18.90;99.90;;;;;;5043365;28;19928;-65
2022/03/15 01:39:41;;;;;;;;;;;18.90;99.90;;;;;;5026833;28;20400;-64
2022/03/15 01:42:09;;;;;;;;;;;18.90;99.90;;;;;;5029743;28;19932;-65
2022/03/15 01:44:37;;;;;;;;;;;18.90;99.90;;;;;;5027254;28;19924;-65
2022/03/15 01:47:05;;;;;;;;;;;18.90;99.90;;;;;;5035927;28;20050;-63
2022/03/15 01:49:32;;;;;;;;;;;18.90;99.90;;;;;;5033747;28;19933;-65
2022/03/15 01:51:59;;;;;;;;;;;18.90;99.90;;;;;;5043104;28;19933;-64
2022/03/15 01:54:30;;;;;;;;;;;18.90;99.90;;;;;;5047656;28;19929;-65
2022/03/15 01:56:57;;;;;;;;;;;18.90;99.90;;;;;;5042090;28;19929;-64
2022/03/15 01:59:24;;;;;;;;;;;18.90;99.90;;;;;;5045093;28;20427;-66
2022/03/15 02:01:52;;;;;;;;;;;18.90;99.90;;;;;;5046725;28;19929;-65
2022/03/15 02:04:21;;;;;;;;;;;18.90;99.90;;;;;;5033816;28;20297;-67
2022/03/15 02:06:50;;;;;;;;;;;18.80;99.90;;;;;;5041340;28;19933;-63
2022/03/15 02:09:17;;;;;;;;;;;18.90;99.90;;;;;;5066307;28;19937;-64
2022/03/15 02:11:45;;;;;;;;;;;18.90;99.90;;;;;;5040789;28;19936;-65
2022/03/15 02:14:12;;;;;;;;;;;18.90;99.90;;;;;;5046198;28;20315;-66
2022/03/15 02:16:39;;;;;;;;;;;18.90;99.90;;;;;;5045025;28;19936;-66
2022/03/15 02:19:06;;;;;;;;;;;18.80;99.90;;;;;;5036630;28;19948;-64
2022/03/15 02:21:36;;;;;;;;;;;18.80;99.90;;;;;;5031160;28;19925;-63
2022/03/15 02:24:03;;;;;;;;;;;18.80;99.90;;;;;;5045724;28;19932;-66
2022/03/15 02:26:31;;;;;;;;;;;18.80;99.90;;;;;;5043893;28;19932;-65
2022/03/15 02:28:58;;;;;;;;;;;18.80;99.90;;;;;;5042799;28;19960;-64
2022/03/15 02:31:25;;;;;;;;;;;18.80;99.90;;;;;;5044625;28;19929;-64
2022/03/15 02:33:52;;;;;;;;;;;18.80;99.90;;;;;;5037039;28;19933;-67
2022/03/15 02:36:20;;;;;;;;;;;18.80;99.90;;;;;;5033761;28;20409;-64
2022/03/15 02:38:47;;;;;;;;;;;18.80;99.90;;;;;;5037591;28;20431;-65
2022/03/15 02:41:14;;;;;;;;;;;18.80;99.90;;;;;;5033138;28;19929;-66
2022/03/15 02:43:42;;;;;;;;;;;18.80;99.90;;;;;;5043555;28;20328;-64
2022/03/15 02:46:10;;;;;;;;;;;18.90;99.90;;;;;;5029444;28;20401;-63
2022/03/15 02:48:37;;;;;;;;;;;18.90;99.90;;;;;;5043144;28;20124;-64
2022/03/15 02:51:08;;;;;;;;;;;18.80;99.90;;;;;;5041764;28;19928;-64
2022/03/15 02:53:37;;;;;;;;;;;18.80;99.90;;;;;;5044579;28;19932;-65
2022/03/15 02:56:10;;;;;;;;;;;18.80;99.90;;;;;;5037684;28;20000;-65
2022/03/15 02:58:37;;;;;;;;;;;18.80;99.90;;;;;;5047650;28;19929;-65
2022/03/15 03:01:05;;;;;;;;;;;18.80;99.90;;;;;;5046976;28;19951;-65
2022/03/15 03:03:34;;;;;;;;;;;18.80;99.90;;;;;;5044780;28;20372;-64
2022/03/15 03:06:01;;;;;;;;;;;18.70;99.90;;;;;;5047043;28;20430;-64
2022/03/15 03:08:30;;;;;;;;;;;18.70;99.90;;;;;;5058618;28;20393;-64
2022/03/15 03:11:01;;;;;;;;;;;18.70;99.90;;;;;;5043984;28;19936;-64
2022/03/15 03:13:30;;;;;;;;;;;18.70;99.90;;;;;;5057327;28;20794;-65
2022/03/15 03:15:59;;;;;;;;;;;18.70;99.90;;;;;;5043802;28;19929;-66
2022/03/15 03:18:29;;;;;;;;;;;18.70;99.90;;;;;;5036957;28;20405;-64
2022/03/15 03:20:56;;;;;;;;;;;18.70;99.90;;;;;;5032771;28;19944;-66
2022/03/15 03:23:23;;;;;;;;;;;18.70;99.90;;;;;;5050205;28;19929;-65
2022/03/15 03:25:50;;;;;;;;;;;18.60;99.90;;;;;;5049320;28;19936;-65
2022/03/15 03:28:18;;;;;;;;;;;18.70;99.90;;;;;;5044459;28;19925;-64
2022/03/15 03:30:46;;;;;;;;;;;18.60;99.90;;;;;;5030450;28;19929;-64
2022/03/15 03:33:14;;;;;;;;;;;18.60;99.90;;;;;;5036441;28;19929;-64
2022/03/15 03:35:43;;;;;;;;;;;18.60;99.90;;;;;;5049724;28;20266;-64
2022/03/15 03:38:11;;;;;;;;;;;18.70;99.90;;;;;;5040423;28;19928;-65
2022/03/15 03:40:38;;;;;;;;;;;18.60;99.90;;;;;;5046709;28;19928;-65
2022/03/15 03:43:06;;;;;;;;;;;18.60;99.90;;;;;;5043480;28;19948;-65
2022/03/15 03:45:36;;;;;;;;;;;18.70;99.90;;;;;;5029353;28;19929;-65
2022/03/15 03:48:04;;;;;;;;;;;18.60;99.90;;;;;;5043279;28;19925;-66
2022/03/15 03:50:32;;;;;;;;;;;18.70;99.90;;;;;;5027840;28;20332;-64
2022/03/15 03:52:59;;;;;;;;;;;18.70;99.90;;;;;;5039747;28;19936;-65
2022/03/15 03:55:26;;;;;;;;;;;18.70;99.90;;;;;;5030307;28;19936;-65
2022/03/15 03:57:54;;;;;;;;;;;18.70;99.90;;;;;;5047878;28;19925;-66
2022/03/15 04:00:21;;;;;;;;;;;18.70;99.90;;;;;;5029521;28;19929;-65
2022/03/15 04:02:48;;;;;;;;;;;18.60;99.90;;;;;;5028807;28;20028;-65
2022/03/15 04:05:16;;;;;;;;;;;18.60;99.90;;;;;;5030609;28;19929;-65
2022/03/15 04:07:46;;;;;;;;;;;18.60;99.90;;;;;;5046027;28;19936;-65
2022/03/15 04:10:13;;;;;;;;;;;18.60;99.90;;;;;;5037991;28;20412;-65
2022/03/15 04:12:42;;;;;;;;;;;18.60;99.90;;;;;;5038731;28;20405;-65
2022/03/15 04:15:09;;;;;;;;;;;18.60;99.90;;;;;;5033014;28;20407;-66
2022/03/15 04:17:37;;;;;;;;;;;18.60;99.90;;;;;;5040434;28;20250;-65
2022/03/15 04:20:04;;;;;;;;;;;18.60;99.90;;;;;;5029176;28;19929;-66
2022/03/15 04:22:31;;;;;;;;;;;18.60;99.90;;;;;;5046797;28;20351;-65
2022/03/15 04:24:59;;;;;;;;;;;18.60;99.90;;;;;;5043857;28;20363;-64
2022/03/15 04:27:26;;;;;;;;;;;18.60;99.90;;;;;;5023283;28;19929;-64
2022/03/15 04:29:53;;;;;;;;;;;18.60;99.90;;;;;;5030371;28;19933;-65
2022/03/15 04:32:21;;;;;;;;;;;18.60;99.90;;;;;;5040593;28;19929;-65
2022/03/15 04:34:48;;;;;;;;;;;18.60;99.90;;;;;;5046447;28;20423;-65
2022/03/15 04:37:15;;;;;;;;;;;18.60;99.90;;;;;;5041965;28;19936;-64
2022/03/15 04:39:42;;;;;;;;;;;18.60;99.90;;;;;;5027501;28;19929;-65
2022/03/15 04:42:10;;;;;;;;;;;18.60;99.90;;;;;;5070928;28;19935;-65
2022/03/15 04:44:37;;;;;;;;;;;18.60;99.90;;;;;;5047509;28;19929;-65
2022/03/15 04:47:04;;;;;;;;;;;18.50;99.90;;;;;;5044045;28;19929;-64
2022/03/15 04:49:31;;;;;;;;;;;18.40;99.90;;;;;;5041565;28;19936;-65
2022/03/15 04:51:58;;;;;;;;;;;18.40;99.90;;;;;;5039591;28;19936;-65
2022/03/15 04:54:26;;;;;;;;;;;18.40;99.90;;;;;;5034594;28;20320;-65
2022/03/15 04:56:53;;;;;;;;;;;18.50;99.90;;;;;;5036044;28;19940;-65
2022/03/15 04:59:21;;;;;;;;;;;18.60;99.90;;;;;;5026484;28;19929;-63
2022/03/15 05:01:48;;;;;;;;;;;18.70;99.90;;;;;;5039372;28;19925;-64
2022/03/15 05:04:16;;;;;;;;;;;18.90;99.90;;;;;;5033024;28;19936;-65
2022/03/15 05:06:43;;;;;;;;;;;19.10;99.90;;;;;;5035209;28;20288;-65
2022/03/15 05:09:10;;;;;;;;;;;19.20;99.90;;;;;;5026389;28;20712;-64
2022/03/15 05:11:44;;;;;;;;;;;19.40;99.90;;;;;;5035511;28;20499;-65
2022/03/15 05:14:14;;;;;;;;;;;19.50;99.90;;;;;;5028236;28;20423;-66
2022/03/15 05:16:41;;;;;;;;;;;19.70;99.90;;;;;;5041649;28;20312;-67
2022/03/15 05:19:09;;;;;;;;;;;19.80;99.90;;;;;;5033940;28;19925;-65
2022/03/15 05:21:36;;;;;;;;;;;19.90;99.90;;;;;;5030656;28;19925;-65
2022/03/15 05:24:04;;;;;;;;;;;20.00;99.90;;;;;;5048374;28;19932;-66
2022/03/15 05:26:31;;;;;;;;;;;20.10;99.90;;;;;;5044977;28;20332;-67
2022/03/15 05:28:58;;;;;;;;;;;20.10;99.90;;;;;;5039916;28;20000;-65
2022/03/15 05:31:28;;;;;;;;;;;20.10;99.90;;;;;;5044154;28;19929;-66
2022/03/15 05:33:59;;;;;;;;;;;20.20;99.90;;;;;;5029889;28;20424;-65
2022/03/15 05:36:26;;;;;;;;;;;20.20;99.90;;;;;;5041736;28;19936;-65
2022/03/15 05:38:54;;;;;;;;;;;20.20;99.90;;;;;;5046496;28;19929;-65
2022/03/15 05:41:21;;;;;;;;;;;20.20;99.90;;;;;;5047154;28;20315;-64
2022/03/15 05:43:54;;;;;;;;;;;20.10;99.90;;;;;;5041419;28;19936;-64
2022/03/15 05:46:22;;;;;;;;;;;20.10;99.90;;;;;;5038964;28;19932;-65
2022/03/15 05:48:49;;;;;;;;;;;20.10;99.90;;;;;;5037342;28;20367;-65
2022/03/15 05:51:16;;;;;;;;;;;20.10;99.90;;;;;;5039941;28;19929;-65
2022/03/15 05:53:43;;;;;;;;;;;20.10;99.90;;;;;;5036173;28;19933;-65
2022/03/15 05:56:11;;;;;;;;;;;20.10;99.90;;;;;;5046141;28;19928;-62
2022/03/15 05:58:42;;;;;;;;;;;20.10;99.90;;;;;;5047154;28;19948;-66
2022/03/15 06:01:09;;;;;;;;;;;20.10;99.90;;;;;;5030021;28;19937;-66
2022/03/15 06:03:37;;;;;;;;;;;20.00;99.90;;;;;;5034332;28;20317;-65
2022/03/15 06:06:04;;;;;;;;;;;20.00;99.90;;;;;;5037536;28;19932;-64
2022/03/15 06:08:32;;;;;;;;;;;20.00;99.90;;;;;;5038279;28;19936;-64
2022/03/15 06:11:00;;;;;;;;;;;20.00;99.90;;;;;;5025458;28;19933;-66
2022/03/15 06:13:28;;;;;;;;;;;19.90;99.90;;;;;;5043735;28;19948;-62
2022/03/15 06:15:55;;;;;;;;;;;19.90;99.90;;;;;;5046493;28;19929;-66
2022/03/15 06:18:22;;;;;;;;;;;19.90;99.90;;;;;;5034873;28;19933;-66
2022/03/15 06:20:50;;;;;;;;;;;19.90;99.90;;;;;;5044923;28;19949;-67
2022/03/15 06:23:17;;;;;;;;;;;19.90;99.90;;;;;;5046563;28;19933;-67
2022/03/15 06:25:44;;;;;;;;;;;19.80;99.90;;;;;;5044347;28;20407;-67
2022/03/15 06:28:12;;;;;;;;;;;19.80;99.90;;;;;;5037847;28;19928;-67
2022/03/15 06:30:40;;;;;;;;;;;19.80;99.90;;;;;;5037838;28;20458;-65
2022/03/15 06:33:09;;;;;;;;;;;19.70;99.90;;;;;;5043652;28;19932;-62
2022/03/15 06:35:39;;;;;;;;;;;19.70;99.90;;;;;;5048000;28;19924;-64
2022/03/15 06:38:08;;;;;;;;;;;19.70;99.90;;;;;;5042221;28;19927;-63
2022/03/15 06:40:35;;;;;;;;;;;19.70;99.90;;;;;;5032854;28;19951;-64
2022/03/15 06:43:03;;;;;;;;;;;19.70;99.90;;;;;;5029173;28;19925;-65
2022/03/15 06:45:30;;;;;;;;;;;19.70;99.90;;;;;;5029334;28;20320;-65
2022/03/15 06:47:58;;;;;;;;;;;19.70;99.90;;;;;;5045375;28;19955;-64
2022/03/15 06:50:26;;;;;;;;;;;19.70;99.90;;;;;;5040927;28;19929;-63
2022/03/15 06:52:53;;;;;;;;;;;19.70;99.90;;;;;;5043535;28;19929;-61
2022/03/15 06:55:20;;;;;;;;;;;19.70;99.90;;;;;;5044108;28;20408;-65
2022/03/15 06:57:48;;;;;;;;;;;19.60;99.90;;;;;;5031623;28;19937;-66
2022/03/15 07:00:15;;;;;;;;;;;19.60;99.90;;;;;;5046591;28;19928;-64
2022/03/15 07:02:43;;;;;;;;;;;19.50;99.90;;;;;;5038566;28;19935;-65
2022/03/15 07:05:10;;;;;;;;;;;19.50;99.90;;;;;;5042980;28;19929;-62
2022/03/15 07:07:37;;;;;;;;;;;19.60;99.90;;;;;;5035514;28;19936;-61
2022/03/15 07:10:06;;;;;;;;;;;19.50;99.90;;;;;;5028651;28;20412;-63
2022/03/15 07:12:34;;;;;;;;;;;19.50;99.90;;;;;;5029222;28;20408;-64
2022/03/15 07:15:03;;;;;;;;;;;19.40;99.90;;;;;;5031712;28;20618;-66
2022/03/15 07:17:30;;;;;;;;;;;19.40;99.90;;;;;;5032754;28;20332;-63
2022/03/15 07:19:58;;;;;;;;;;;19.40;99.90;;;;;;5028413;28;19929;-62
2022/03/15 07:22:26;;;;;;;;;;;19.30;99.90;;;;;;5038366;28;19925;-63
2022/03/15 07:24:53;;;;;;;;;;;19.40;99.90;;;;;;5029038;28;20490;-67
2022/03/15 07:27:21;;;;;;;;;;;19.30;99.90;;;;;;5028383;28;19925;-62
2022/03/15 07:29:48;;;;;;;;;;;19.30;99.90;;;;;;5028270;28;20309;-62
2022/03/15 07:32:15;;;;;;;;;;;19.30;99.90;;;;;;5028126;28;19940;-64
2022/03/15 07:34:42;;;;;;;;;;;19.30;99.90;;;;;;5035844;28;19944;-64
2022/03/15 07:37:10;;;;;;;;;;;19.30;99.90;;;;;;5039164;28;20393;-64
2022/03/15 07:39:40;;;;;;;;;;;19.30;99.90;;;;;;5035184;28;19928;-62
2022/03/15 07:42:07;;;;;;;;;;;19.30;99.90;;;;;;5043501;28;19929;-64
2022/03/15 07:44:35;;;;;;;;;;;19.20;99.90;;;;;;5033051;28;19929;-66
2022/03/15 07:47:02;;;;;;;;;;;19.20;99.90;;;;;;5027867;28;19948;-63
2022/03/15 07:49:29;;;;;;;;;;;19.20;99.90;;;;;;5033746;28;19935;-65
2022/03/15 07:51:58;;;;;;;;;;;19.20;99.90;;;;;;5036243;28;20323;-64
2022/03/15 07:54:25;;;;;;;;;;;19.20;99.90;;;;;;5032959;28;20312;-64
2022/03/15 07:56:52;;;;;;;;;;;19.20;99.90;;;;;;5030501;28;20308;-63
2022/03/15 07:59:21;;;;;;;;;;;19.20;99.90;;;;;;5027540;28;20032;-64
2022/03/15 08:01:50;;;;;;;;;;;19.20;99.90;;;;;;5044000;28;20392;-62
2022/03/15 08:04:18;;;;;;;;;;;19.20;99.90;;;;;;5037423;28;19940;-62
2022/03/15 08:06:47;;;;;;;;;;;19.20;99.90;;;;;;5048859;28;19933;-66
2022/03/15 08:09:14;;;;;;;;;;;19.10;99.90;;;;;;5038775;28;19951;-65
2022/03/15 08:11:41;;;;;;;;;;;19.10;99.90;;;;;;5040811;28;19925;-62
2022/03/15 08:14:09;;;;;;;;;;;19.10;99.90;;;;;;5030100;28;19929;-64
2022/03/15 08:16:37;;;;;;;;;;;19.10;99.90;;;;;;5032350;28;19936;-64
2022/03/15 08:19:05;;;;;;;;;;;19.10;99.90;;;;;;5028301;28;19929;-65
2022/03/15 08:21:33;;;;;;;;;;;19.10;99.90;;;;;;5042617;28;19935;-63
2022/03/15 08:24:00;;;;;;;;;;;19.10;99.90;;;;;;5037102;28;20319;-61
2022/03/15 08:26:28;;;;;;;;;;;19.10;99.90;;;;;;5030409;28;20409;-61
2022/03/15 08:28:55;;;;;;;;;;;19.10;99.90;;;;;;5042521;28;19929;-62
2022/03/15 08:31:22;;;;;;;;;;;19.10;99.90;;;;;;5027459;28;19936;-63
2022/03/15 08:33:49;;;;;;;;;;;19.10;99.90;;;;;;5044445;28;20271;-59
2022/03/15 08:36:17;;;;;;;;;;;19.10;99.90;;;;;;5038260;28;19936;-62
2022/03/15 08:38:45;;;;;;;;;;;19.10;99.90;;;;;;5034448;28;19929;-64
2022/03/15 08:41:12;;;;;;;;;;;19.10;99.90;;;;;;5026650;28;19956;-64
2022/03/15 08:43:39;;;;;;;;;;;19.00;99.90;;;;;;5040616;28;19929;-65
2022/03/15 08:46:06;;;;;;;;;;;19.00;99.90;;;;;;5037965;28;20161;-65
2022/03/15 08:48:34;;;;;;;;;;;19.10;99.90;;;;;;5036370;28;19936;-60
2022/03/15 08:51:01;;;;;;;;;;;19.10;99.90;;;;;;5035682;28;19935;-62
2022/03/15 08:53:31;;;;;;;;;;;19.10;99.90;;;;;;5045470;28;19932;-64
2022/03/15 08:55:58;;;;;;;;;;;19.10;99.90;;;;;;5045782;28;19935;-65
2022/03/15 08:58:25;;;;;;;;;;;19.20;99.90;;;;;;5031862;28;19944;-66
2022/03/15 09:00:54;;;;;;;;;;;19.20;99.90;;;;;;5048261;28;20052;-68
2022/03/15 09:03:22;;;;;;;;;;;19.20;99.90;;;;;;5042448;28;19936;-65
2022/03/15 09:05:49;;;;;;;;;;;19.30;99.90;;;;;;5037454;28;19940;-63
2022/03/15 09:08:18;;;;;;;;;;;19.30;99.90;;;;;;5046040;28;19949;-67
2022/03/15 09:10:47;;;;;;;;;;;19.30;99.90;;;;;;5031877;28;19936;-64
2022/03/15 09:13:14;;;;;;;;;;;19.20;99.90;;;;;;5041521;28;19929;-65
2022/03/15 09:15:41;;;;;;;;;;;19.20;99.90;;;;;;5035627;28;19933;-65
2022/03/15 09:18:09;;;;;;;;;;;19.10;99.90;;;;;;5031785;28;19925;-65
2022/03/15 09:20:36;;;;;;;;;;;19.10;99.90;;;;;;5041401;28;19943;-65
2022/03/15 09:23:04;;;;;;;;;;;19.10;99.90;;;;;;5031312;28;19985;-61
2022/03/15 09:25:32;;;;;;;;;;;19.10;99.90;;;;;;5030987;28;20314;-65
2022/03/15 09:27:59;;;;;;;;;;;19.00;99.90;;;;;;5031747;28;19956;-63
2022/03/15 09:30:30;;;;;;;;;;;19.10;99.90;;;;;;5039380;28;19949;-63
2022/03/15 09:32:58;;;;;;;;;;;19.00;99.90;;;;;;5031926;28;19936;-63
2022/03/15 09:35:35;;;;;;;;;;;19.00;99.90;;;;;;5031594;28;19929;-62
2022/03/15 09:38:02;;;;;;;;;;;19.00;99.90;;;;;;5029167;28;20401;-65
2022/03/15 09:40:31;;;;;;;;;;;19.00;99.90;;;;;;5030593;28;19936;-64
2022/03/15 09:43:00;;;;;;;;;;;19.00;99.90;;;;;;5030900;28;20247;-62
2022/03/15 09:45:31;;;;;;;;;;;19.00;99.90;;;;;;5033072;28;19933;-66
2022/03/15 09:48:00;;;;;;;;;;;19.00;99.90;;;;;;5033122;28;20012;-63
2022/03/15 09:50:27;;;;;;;;;;;19.00;99.90;;;;;;5030775;28;19936;-66
2022/03/15 09:52:56;;;;;;;;;;;19.00;99.90;;;;;;5031702;28;20240;-65
2022/03/15 09:55:24;;;;;;;;;;;18.90;99.90;;;;;;5031265;28;20401;-65
2022/03/15 09:57:52;;;;;;;;;;;19.00;99.90;;;;;;5031047;28;19925;-65
2022/03/15 10:00:19;;;;;;;;;;;18.90;99.90;;;;;;5030147;28;19929;-66
2022/03/15 10:02:47;;;;;;;;;;;19.00;99.90;;;;;;5030262;28;20595;-66
2022/03/15 10:05:14;;;;;;;;;;;18.90;99.90;;;;;;5030062;28;19929;-65
2022/03/15 10:07:41;;;;;;;;;;;18.90;99.90;;;;;;5030384;28;20039;-65
2022/03/15 10:10:10;;;;;;;;;;;19.00;99.90;;;;;;5030580;28;19929;-65
2022/03/15 10:12:37;;;;;;;;;;;19.00;99.90;;;;;;5031033;28;20440;-64
2022/03/15 10:15:16;;;;;;;;;;;19.00;99.90;;;;;;5032864;28;19976;-65
2022/03/15 10:17:44;;;;;;;;;;;19.00;99.90;;;;;;5033579;28;20391;-62
2022/03/15 10:20:13;;;;;;;;;;;19.10;99.90;;;;;;5030505;28;19936;-65
2022/03/15 10:22:49;;;;;;;;;;;19.20;99.90;;;;;;5029988;28;19929;-62
2022/03/15 10:25:16;;;;;;;;;;;19.20;99.90;;;;;;5030145;28;19939;-64
2022/03/15 10:27:48;;;;;;;;;;;19.30;99.90;;;;;;5061683;28;19940;-66
2022/03/15 10:30:16;;;;;;;;;;;19.40;99.90;;;;;;5046493;28;19948;-61
2022/03/15 10:32:43;;;;;;;;;;;19.50;99.90;;;;;;5029914;28;19936;-62
2022/03/15 10:35:11;;;;;;;;;;;19.50;99.90;;;;;;5031072;28;20290;-64
2022/03/15 10:37:42;;;;;;;;;;;19.50;99.90;;;;;;5045240;28;19925;-65
2022/03/15 10:40:09;;;;;;;;;;;19.50;99.90;;;;;;5042210;28;19960;-64
2022/03/15 10:42:41;;;;;;;;;;;19.50;99.90;;;;;;5030858;28;19929;-65
2022/03/15 10:45:19;;;;;;;;;;;19.40;99.90;;;;;;5030537;28;19948;-66
2022/03/15 10:47:51;;;;;;;;;;;19.50;99.90;;;;;;5061541;28;19933;-67
2022/03/15 10:50:18;;;;;;;;;;;19.50;99.90;;;;;;5036831;28;19929;-65
2022/03/15 10:52:46;;;;;;;;;;;19.40;99.90;;;;;;5035489;28;19949;-67
2022/03/15 10:55:13;;;;;;;;;;;19.40;99.90;;;;;;5039695;28;19929;-64
2022/03/15 10:57:44;;;;;;;;;;;19.40;99.90;;;;;;5029478;28;19933;-65
2022/03/15 11:00:12;;;;;;;;;;;19.40;99.90;;;;;;5037971;28;19929;-65
2022/03/15 11:02:43;;;;;;;;;;;19.40;99.90;;;;;;5029527;28;20000;-66
2022/03/15 11:05:11;;;;;;;;;;;19.40;99.90;;;;;;5040889;28;19929;-64
2022/03/15 11:07:39;;;;;;;;;;;19.30;99.90;;;;;;5046194;28;19931;-66
2022/03/15 11:10:14;;;;;;;;;;;19.30;99.90;;;;;;5037738;28;19933;-66
2022/03/15 11:12:58;;;;;;;;;;;19.30;99.90;;;;;;5029052;28;19952;-66
2022/03/15 11:15:28;;;;;;;;;;;19.30;99.90;;;;;;5035433;28;20346;-64
2022/03/15 11:18:00;;;;;;;;;;;19.30;99.90;;;;;;5036373;28;19928;-66
2022/03/15 11:20:29;;;;;;;;;;;19.30;99.90;;;;;;5029338;28;19929;-65
2022/03/15 11:22:59;;;;;;;;;;;19.30;99.90;;;;;;5040504;28;19944;-64
2022/03/15 11:25:33;;;;;;;;;;;19.30;99.90;;;;;;5046969;28;19935;-63
2022/03/15 11:28:01;;;;;;;;;;;19.40;99.90;;;;;;5042143;28;19928;-62
2022/03/15 11:30:29;;;;;;;;;;;19.30;99.90;;;;;;5032446;28;20312;-64
2022/03/15 11:32:57;;;;;;;;;;;19.30;99.90;;;;;;5033892;28;19960;-62
2022/03/15 11:35:25;;;;;;;;;;;19.20;99.90;;;;;;5029678;28;19932;-60
2022/03/15 11:37:53;;;;;;;;;;;19.20;99.70;;;;;;5045005;28;19928;-64
2022/03/15 11:40:20;;;;;;;;;;;19.20;98.50;;;;;;5046119;28;19929;-64
2022/03/15 11:42:49;;;;;;;;;;;19.10;97.80;;;;;;5048467;28;19936;-64
2022/03/15 11:45:23;;;;;;;;;;;19.10;97.40;;;;;;5046716;28;19929;-60
2022/03/15 11:48:04;;;;;;;;;;;19.00;97.20;;;;;;5042779;28;19929;-62
2022/03/15 11:50:35;;;;;;;;;;;19.00;96.80;;;;;;5047742;28;19929;-62
2022/03/15 11:53:11;;;;;;;;;;;19.00;96.50;;;;;;5044669;28;20312;-61
2022/03/15 11:55:57;;;;;;;;;;;18.90;96.40;;;;;;5029567;28;20399;-63
2022/03/15 11:58:26;;;;;;;;;;;18.90;96.20;;;;;;5032077;28;20503;-60
2022/03/15 12:00:53;;;;;;;;;;;18.90;96.00;;;;;;5029643;28;20423;-62
2022/03/15 12:03:23;;;;;;;;;;;19.00;96.00;;;;;;5041596;28;19932;-61
2022/03/15 12:05:51;;;;;;;;;;;19.00;95.70;;;;;;5037414;28;20890;-63
2022/03/15 12:08:20;;;;;;;;;;;19.00;95.00;;;;;;5027348;28;19953;-60
2022/03/15 12:10:55;;;;;;;;;;;19.10;94.70;;;;;;5028198;28;19925;-62
2022/03/15 12:13:45;;;;;;;;;;;19.10;95.00;;;;;;5029520;28;20703;-61
2022/03/15 12:16:24;;;;;;;;;;;19.20;94.80;;;;;;5044296;28;19936;-61
2022/03/15 12:19:06;;;;;;;;;;;19.30;95.00;;;;;;5041258;28;20298;-61
2022/03/15 12:21:51;;;;;;;;;;;19.40;95.30;;;;;;5031184;28;19932;-61
2022/03/15 12:24:32;;;;;;;;;;;19.60;95.40;;;;;;5045282;28;19925;-62
2022/03/15 12:27:01;;;;;;;;;;;19.70;95.50;;;;;;5029661;28;19929;-62
2022/03/15 12:29:30;;;;;;;;;;;19.80;95.70;;;;;;5032539;28;20035;-60
2022/03/15 12:32:09;;;;;;;;;;;19.90;96.00;;;;;;5034820;28;19952;-61
2022/03/15 12:34:39;;;;;;;;;;;19.90;95.90;;;;;;5071051;28;20156;-65
2022/03/15 12:37:07;;;;;;;;;;;19.90;96.00;;;;;;5046127;28;19932;-61
2022/03/15 12:39:36;;;;;;;;;;;20.00;96.20;;;;;;5049344;28;19925;-62
2022/03/15 12:42:06;;;;;;;;;;;20.00;96.10;;;;;;5045139;28;19925;-62
2022/03/15 12:44:38;;;;;;;;;;;20.00;96.20;;;;;;5045237;28;19935;-63
2022/03/15 12:47:10;;;;;;;;;;;20.10;96.20;;;;;;5045182;28;20332;-61
2022/03/15 12:49:37;;;;;;;;;;;20.10;96.40;;;;;;5041019;28;19940;-64
2022/03/15 12:52:13;;;;;;;;;;;20.20;96.60;;;;;;5041027;28;19925;-63
2022/03/15 12:54:44;;;;;;;;;;;20.20;96.90;;;;;;5045825;28;20491;-62
2022/03/15 12:57:13;;;;;;;;;;;20.30;97.30;;;;;;5044119;28;20003;-63
2022/03/15 12:59:48;;;;;;;;;;;20.30;97.40;;;;;;5039252;28;19933;-62
2022/03/15 13:02:16;;;;;;;;;;;20.30;97.60;;;;;;5044414;28;19933;-61
2022/03/15 13:04:52;;;;;;;;;;;20.30;98.10;;;;;;5040050;28;20364;-62
2022/03/15 13:07:27;;;;;;;;;;;20.30;98.00;;;;;;5036858;28;19937;-63
2022/03/15 13:09:58;;;;;;;;;;;20.30;98.60;;;;;;5028418;28;20221;-62
2022/03/15 13:12:32;;;;;;;;;;;20.30;98.30;;;;;;5028126;28;19936;-64
2022/03/15 13:14:59;;;;;;;;;;;20.30;98.60;;;;;;5040729;28;19936;-62
2022/03/15 13:17:30;;;;;;;;;;;20.30;98.80;;;;;;5041055;28;19929;-63
2022/03/15 13:20:00;;;;;;;;;;;20.30;99.30;;;;;;5042736;28;19929;-62
2022/03/15 13:22:28;;;;;;;;;;;20.20;99.60;;;;;;5039813;28;19937;-60
2022/03/15 13:24:56;;;;;;;;;;;20.20;99.60;;;;;;5039209;28;19928;-60
2022/03/15 13:27:23;;;;;;;;;;;20.30;99.60;;;;;;5035775;28;20396;-60
2022/03/15 13:29:50;;;;;;;;;;;20.20;99.80;;;;;;5043031;28;19925;-61
2022/03/15 13:32:23;;;;;;;;;;;20.20;99.90;;;;;;5042226;28;19929;-62
2022/03/15 13:34:55;;;;;;;;;;;20.20;99.90;;;;;;5039748;28;19929;-64
2022/03/15 13:37:22;;;;;;;;;;;20.20;99.70;;;;;;5045557;28;19929;-61
2022/03/15 13:39:50;;;;;;;;;;;20.10;98.70;;;;;;5043203;28;19928;-68
2022/03/15 13:42:19;;;;;;;;;;;20.00;98.10;;;;;;5042653;28;19929;-66
2022/03/15 13:44:50;;;;;;;;;;;19.90;97.60;;;;;;5049061;28;19929;-65
2022/03/15 13:47:21;;;;;;;;;;;19.80;96.80;;;;;;5037372;28;20300;-66
2022/03/15 13:49:50;;;;;;;;;;;19.60;96.60;;;;;;5027194;28;19925;-63
2022/03/15 13:52:20;;;;;;;;;;;19.60;96.00;;;;;;5036180;28;19960;-65
2022/03/15 13:55:02;;;;;;;;;;;19.50;95.70;;;;;;5034527;28;19933;-63
2022/03/15 13:57:31;;;;;;;;;;;19.50;95.30;;;;;;5041451;28;20200;-62
2022/03/15 14:00:06;;;;;;;;;;;19.50;95.40;;;;;;5031118;28;19933;-63
2022/03/15 14:02:42;;;;;;;;;;;19.50;96.00;;;;;;5051014;28;20381;-64
2022/03/15 14:05:14;;;;;;;;;;;19.60;96.50;;;;;;5048879;28;20664;-61
2022/03/15 14:07:45;;;;;;;;;;;19.70;96.90;;;;;;5044561;28;20281;-64
2022/03/15 14:10:18;;;;;;;;;;;19.70;97.10;;;;;;5049528;28;19935;-60
2022/03/15 14:12:48;;;;;;;;;;;19.70;97.30;;;;;;5049953;28;19936;-61
2022/03/15 14:15:16;;;;;;;;;;;19.70;97.60;;;;;;5042974;28;19933;-60
2022/03/15 14:17:48;;;;;;;;;;;19.70;97.80;;;;;;5044409;28;19932;-67
2022/03/15 14:20:27;;;;;;;;;;;19.70;97.90;;;;;;5038166;28;19929;-63
2022/03/15 14:22:55;;;;;;;;;;;19.80;98.10;;;;;;5048440;28;20779;-64
2022/03/15 14:25:24;;;;;;;;;;;19.80;98.20;;;;;;5048788;28;19929;-64